sensor_id;sensor_type;location;lat;lon;timestamp;P1;durP1;ratioP1;P2;durP2;ratioP2
27505;SDS011;14939;43.596;1.320;2023-03-05T00:01:09;84.70;;;42.70;;
27505;SDS011;14939;43.596;1.320;2023-03-05T00:03:37;87.10;;;42.25;;
27505;SDS011;14939;43.596;1.320;2023-03-05T00:06:03;88.60;;;43.58;;
27505;SDS011;14939;43.596;1.320;2023-03-05T00:08:29;85.68;;;44.95;;
27505;SDS011;14939;43.596;1.320;2023-03-05T00:10:56;92.80;;;48.25;;
27505;SDS011;14939;43.596;1.320;2023-03-05T00:13:26;96.03;;;49.08;;
27505;SDS011;14939;43.596;1.320;2023-03-05T00:15:53;94.60;;;50.55;;
27505;SDS011;14939;43.596;1.320;2023-03-05T00:18:19;99.20;;;50.60;;
27505;SDS011;14939;43.596;1.320;2023-03-05T00:20:45;97.25;;;48.85;;
27505;SDS011;14939;43.596;1.320;2023-03-05T00:23:12;94.45;;;50.83;;
27505;SDS011;14939;43.596;1.320;2023-03-05T00:25:38;95.97;;;49.45;;
27505;SDS011;14939;43.596;1.320;2023-03-05T00:28:05;97.13;;;49.50;;
27505;SDS011;14939;43.596;1.320;2023-03-05T00:30:32;89.65;;;46.80;;
27505;SDS011;14939;43.596;1.320;2023-03-05T00:32:58;91.68;;;48.63;;
27505;SDS011;14939;43.596;1.320;2023-03-05T00:35:24;87.43;;;45.70;;
27505;SDS011;14939;43.596;1.320;2023-03-05T00:37:49;89.60;;;46.28;;
27505;SDS011;14939;43.596;1.320;2023-03-05T00:40:15;83.05;;;45.47;;
27505;SDS011;14939;43.596;1.320;2023-03-05T00:42:41;86.80;;;46.08;;
27505;SDS011;14939;43.596;1.320;2023-03-05T00:45:08;85.93;;;45.30;;
27505;SDS011;14939;43.596;1.320;2023-03-05T00:47:34;90.72;;;46.00;;
27505;SDS011;14939;43.596;1.320;2023-03-05T00:50:00;92.18;;;46.22;;
27505;SDS011;14939;43.596;1.320;2023-03-05T00:52:27;89.47;;;46.17;;
27505;SDS011;14939;43.596;1.320;2023-03-05T00:54:52;92.03;;;46.45;;
27505;SDS011;14939;43.596;1.320;2023-03-05T00:57:18;89.80;;;45.65;;
27505;SDS011;14939;43.596;1.320;2023-03-05T00:59:43;83.00;;;42.80;;
27505;SDS011;14939;43.596;1.320;2023-03-05T01:02:09;80.82;;;43.45;;
27505;SDS011;14939;43.596;1.320;2023-03-05T01:04:35;89.03;;;45.17;;
27505;SDS011;14939;43.596;1.320;2023-03-05T01:07:02;89.38;;;46.42;;
27505;SDS011;14939;43.596;1.320;2023-03-05T01:09:28;93.70;;;47.45;;
27505;SDS011;14939;43.596;1.320;2023-03-05T01:11:54;89.63;;;44.78;;
27505;SDS011;14939;43.596;1.320;2023-03-05T01:14:20;87.90;;;45.85;;
27505;SDS011;14939;43.596;1.320;2023-03-05T01:16:46;95.20;;;46.50;;
27505;SDS011;14939;43.596;1.320;2023-03-05T01:19:13;88.63;;;45.67;;
27505;SDS011;14939;43.596;1.320;2023-03-05T01:21:39;92.72;;;46.15;;
27505;SDS011;14939;43.596;1.320;2023-03-05T01:24:06;93.65;;;46.50;;
27505;SDS011;14939;43.596;1.320;2023-03-05T01:26:32;93.88;;;45.88;;
27505;SDS011;14939;43.596;1.320;2023-03-05T01:28:58;94.47;;;46.47;;
27505;SDS011;14939;43.596;1.320;2023-03-05T01:31:24;94.15;;;47.30;;
27505;SDS011;14939;43.596;1.320;2023-03-05T01:33:53;93.47;;;47.92;;
27505;SDS011;14939;43.596;1.320;2023-03-05T01:36:19;95.88;;;47.45;;
27505;SDS011;14939;43.596;1.320;2023-03-05T01:38:47;95.63;;;48.03;;
27505;SDS011;14939;43.596;1.320;2023-03-05T01:41:14;94.43;;;47.33;;
27505;SDS011;14939;43.596;1.320;2023-03-05T01:43:40;90.97;;;48.00;;
27505;SDS011;14939;43.596;1.320;2023-03-05T01:46:27;102.05;;;50.08;;
27505;SDS011;14939;43.596;1.320;2023-03-05T01:51:42;96.40;;;50.58;;
27505;SDS011;14939;43.596;1.320;2023-03-05T01:54:12;99.30;;;49.38;;
27505;SDS011;14939;43.596;1.320;2023-03-05T01:56:40;94.72;;;47.45;;
27505;SDS011;14939;43.596;1.320;2023-03-05T01:59:07;92.53;;;47.60;;
27505;SDS011;14939;43.596;1.320;2023-03-05T02:01:45;92.72;;;48.58;;
27505;SDS011;14939;43.596;1.320;2023-03-05T02:04:15;96.18;;;45.42;;
27505;SDS011;14939;43.596;1.320;2023-03-05T02:06:44;91.32;;;44.97;;
27505;SDS011;14939;43.596;1.320;2023-03-05T02:09:10;93.88;;;46.10;;
27505;SDS011;14939;43.596;1.320;2023-03-05T02:11:36;93.30;;;46.67;;
27505;SDS011;14939;43.596;1.320;2023-03-05T02:14:02;90.22;;;45.22;;
27505;SDS011;14939;43.596;1.320;2023-03-05T02:16:29;90.95;;;45.42;;
27505;SDS011;14939;43.596;1.320;2023-03-05T02:19:05;96.20;;;46.42;;
27505;SDS011;14939;43.596;1.320;2023-03-05T02:21:40;93.35;;;46.75;;
27505;SDS011;14939;43.596;1.320;2023-03-05T02:24:09;98.20;;;47.20;;
27505;SDS011;14939;43.596;1.320;2023-03-05T02:26:36;95.40;;;46.40;;
27505;SDS011;14939;43.596;1.320;2023-03-05T02:29:02;97.28;;;46.95;;
27505;SDS011;14939;43.596;1.320;2023-03-05T02:31:31;92.75;;;45.47;;
27505;SDS011;14939;43.596;1.320;2023-03-05T02:33:57;103.20;;;48.13;;
27505;SDS011;14939;43.596;1.320;2023-03-05T02:36:23;96.95;;;46.22;;
27505;SDS011;14939;43.596;1.320;2023-03-05T02:38:49;95.25;;;46.65;;
27505;SDS011;14939;43.596;1.320;2023-03-05T02:41:16;96.72;;;46.65;;
27505;SDS011;14939;43.596;1.320;2023-03-05T02:43:43;97.38;;;47.60;;
27505;SDS011;14939;43.596;1.320;2023-03-05T02:46:08;97.47;;;45.75;;
27505;SDS011;14939;43.596;1.320;2023-03-05T02:48:34;97.60;;;47.10;;
27505;SDS011;14939;43.596;1.320;2023-03-05T02:51:01;95.20;;;45.97;;
27505;SDS011;14939;43.596;1.320;2023-03-05T02:53:28;91.88;;;45.25;;
27505;SDS011;14939;43.596;1.320;2023-03-05T02:55:53;97.75;;;46.58;;
27505;SDS011;14939;43.596;1.320;2023-03-05T02:58:19;89.28;;;45.50;;
27505;SDS011;14939;43.596;1.320;2023-03-05T03:00:45;91.68;;;45.10;;
27505;SDS011;14939;43.596;1.320;2023-03-05T03:03:11;90.47;;;45.17;;
27505;SDS011;14939;43.596;1.320;2023-03-05T03:05:36;93.18;;;46.03;;
27505;SDS011;14939;43.596;1.320;2023-03-05T03:08:02;90.07;;;44.92;;
27505;SDS011;14939;43.596;1.320;2023-03-05T03:10:28;93.68;;;43.40;;
27505;SDS011;14939;43.596;1.320;2023-03-05T03:12:54;92.85;;;44.72;;
27505;SDS011;14939;43.596;1.320;2023-03-05T03:15:20;89.28;;;43.90;;
27505;SDS011;14939;43.596;1.320;2023-03-05T03:17:46;93.38;;;45.63;;
27505;SDS011;14939;43.596;1.320;2023-03-05T03:20:13;90.50;;;44.60;;
27505;SDS011;14939;43.596;1.320;2023-03-05T03:22:41;89.47;;;44.85;;
27505;SDS011;14939;43.596;1.320;2023-03-05T03:25:08;94.30;;;45.05;;
27505;SDS011;14939;43.596;1.320;2023-03-05T03:27:35;97.05;;;46.40;;
27505;SDS011;14939;43.596;1.320;2023-03-05T03:30:00;96.82;;;47.17;;
27505;SDS011;14939;43.596;1.320;2023-03-05T03:32:29;90.45;;;45.25;;
27505;SDS011;14939;43.596;1.320;2023-03-05T03:34:55;98.03;;;46.83;;
27505;SDS011;14939;43.596;1.320;2023-03-05T03:37:21;96.20;;;45.78;;
27505;SDS011;14939;43.596;1.320;2023-03-05T03:39:47;92.38;;;45.28;;
27505;SDS011;14939;43.596;1.320;2023-03-05T03:42:15;97.75;;;45.47;;
27505;SDS011;14939;43.596;1.320;2023-03-05T03:44:42;91.53;;;44.58;;
27505;SDS011;14939;43.596;1.320;2023-03-05T03:47:07;92.85;;;45.75;;
27505;SDS011;14939;43.596;1.320;2023-03-05T03:49:33;98.43;;;46.80;;
27505;SDS011;14939;43.596;1.320;2023-03-05T03:51:59;97.55;;;45.35;;
27505;SDS011;14939;43.596;1.320;2023-03-05T03:54:25;93.55;;;45.25;;
27505;SDS011;14939;43.596;1.320;2023-03-05T03:56:50;89.30;;;44.30;;
27505;SDS011;14939;43.596;1.320;2023-03-05T03:59:16;93.00;;;45.40;;
27505;SDS011;14939;43.596;1.320;2023-03-05T04:01:42;99.30;;;46.20;;
27505;SDS011;14939;43.596;1.320;2023-03-05T04:04:09;92.43;;;45.50;;
27505;SDS011;14939;43.596;1.320;2023-03-05T04:06:36;100.53;;;45.45;;
27505;SDS011;14939;43.596;1.320;2023-03-05T04:09:02;89.75;;;44.08;;
27505;SDS011;14939;43.596;1.320;2023-03-05T04:11:28;94.65;;;45.47;;
27505;SDS011;14939;43.596;1.320;2023-03-05T04:13:54;97.70;;;46.15;;
27505;SDS011;14939;43.596;1.320;2023-03-05T04:16:20;94.57;;;45.47;;
27505;SDS011;14939;43.596;1.320;2023-03-05T04:18:46;91.50;;;44.58;;
27505;SDS011;14939;43.596;1.320;2023-03-05T04:21:11;96.95;;;45.50;;
27505;SDS011;14939;43.596;1.320;2023-03-05T04:23:37;92.53;;;44.40;;
27505;SDS011;14939;43.596;1.320;2023-03-05T04:26:03;94.13;;;45.28;;
27505;SDS011;14939;43.596;1.320;2023-03-05T04:28:29;96.32;;;46.20;;
27505;SDS011;14939;43.596;1.320;2023-03-05T04:30:55;91.53;;;44.22;;
27505;SDS011;14939;43.596;1.320;2023-03-05T04:33:21;97.32;;;45.75;;
27505;SDS011;14939;43.596;1.320;2023-03-05T04:35:46;94.03;;;44.00;;
27505;SDS011;14939;43.596;1.320;2023-03-05T04:38:12;90.68;;;44.83;;
27505;SDS011;14939;43.596;1.320;2023-03-05T04:40:38;94.90;;;45.03;;
27505;SDS011;14939;43.596;1.320;2023-03-05T04:43:04;88.15;;;44.65;;
27505;SDS011;14939;43.596;1.320;2023-03-05T04:45:31;89.97;;;44.42;;
27505;SDS011;14939;43.596;1.320;2023-03-05T04:47:57;91.07;;;43.03;;
27505;SDS011;14939;43.596;1.320;2023-03-05T04:50:23;86.97;;;44.67;;
27505;SDS011;14939;43.596;1.320;2023-03-05T04:52:49;93.90;;;44.35;;
27505;SDS011;14939;43.596;1.320;2023-03-05T04:55:15;101.00;;;46.40;;
27505;SDS011;14939;43.596;1.320;2023-03-05T04:57:42;94.60;;;44.85;;
27505;SDS011;14939;43.596;1.320;2023-03-05T05:00:09;93.72;;;46.38;;
27505;SDS011;14939;43.596;1.320;2023-03-05T05:02:38;96.20;;;46.42;;
27505;SDS011;14939;43.596;1.320;2023-03-05T05:05:06;88.38;;;45.03;;
27505;SDS011;14939;43.596;1.320;2023-03-05T05:07:32;99.13;;;46.53;;
27505;SDS011;14939;43.596;1.320;2023-03-05T05:09:58;93.18;;;45.33;;
27505;SDS011;14939;43.596;1.320;2023-03-05T05:12:26;91.93;;;44.22;;
27505;SDS011;14939;43.596;1.320;2023-03-05T05:14:53;94.88;;;44.85;;
27505;SDS011;14939;43.596;1.320;2023-03-05T05:17:19;94.78;;;43.67;;
27505;SDS011;14939;43.596;1.320;2023-03-05T05:19:44;90.25;;;44.40;;
27505;SDS011;14939;43.596;1.320;2023-03-05T05:22:10;93.85;;;44.58;;
27505;SDS011;14939;43.596;1.320;2023-03-05T05:24:36;95.07;;;44.90;;
27505;SDS011;14939;43.596;1.320;2023-03-05T05:27:01;94.10;;;44.20;;
27505;SDS011;14939;43.596;1.320;2023-03-05T05:29:27;95.70;;;44.42;;
27505;SDS011;14939;43.596;1.320;2023-03-05T05:31:52;96.38;;;44.85;;
27505;SDS011;14939;43.596;1.320;2023-03-05T05:34:20;97.30;;;45.28;;
27505;SDS011;14939;43.596;1.320;2023-03-05T05:36:46;94.45;;;44.17;;
27505;SDS011;14939;43.596;1.320;2023-03-05T05:39:12;95.50;;;45.17;;
27505;SDS011;14939;43.596;1.320;2023-03-05T05:41:37;89.78;;;43.95;;
27505;SDS011;14939;43.596;1.320;2023-03-05T05:44:03;99.82;;;44.85;;
27505;SDS011;14939;43.596;1.320;2023-03-05T05:46:29;98.45;;;44.53;;
27505;SDS011;14939;43.596;1.320;2023-03-05T05:48:54;99.70;;;44.45;;
27505;SDS011;14939;43.596;1.320;2023-03-05T05:51:20;100.60;;;45.83;;
27505;SDS011;14939;43.596;1.320;2023-03-05T05:53:47;98.85;;;44.63;;
27505;SDS011;14939;43.596;1.320;2023-03-05T05:56:14;100.97;;;45.92;;
27505;SDS011;14939;43.596;1.320;2023-03-05T05:58:44;94.18;;;44.95;;
27505;SDS011;14939;43.596;1.320;2023-03-05T06:01:24;101.25;;;46.75;;
27505;SDS011;14939;43.596;1.320;2023-03-05T06:03:52;103.32;;;46.50;;
27505;SDS011;14939;43.596;1.320;2023-03-05T06:06:19;100.03;;;45.83;;
27505;SDS011;14939;43.596;1.320;2023-03-05T06:08:46;108.90;;;47.38;;
27505;SDS011;14939;43.596;1.320;2023-03-05T06:11:12;98.82;;;46.10;;
27505;SDS011;14939;43.596;1.320;2023-03-05T06:13:38;100.10;;;45.92;;
27505;SDS011;14939;43.596;1.320;2023-03-05T06:16:05;99.85;;;46.80;;
27505;SDS011;14939;43.596;1.320;2023-03-05T06:18:33;100.47;;;45.85;;
27505;SDS011;14939;43.596;1.320;2023-03-05T06:21:00;104.25;;;46.58;;
27505;SDS011;14939;43.596;1.320;2023-03-05T06:23:27;103.50;;;45.47;;
27505;SDS011;14939;43.596;1.320;2023-03-05T06:25:53;100.05;;;45.65;;
27505;SDS011;14939;43.596;1.320;2023-03-05T06:28:20;98.10;;;45.53;;
27505;SDS011;14939;43.596;1.320;2023-03-05T06:30:45;98.78;;;46.67;;
27505;SDS011;14939;43.596;1.320;2023-03-05T06:33:11;96.55;;;45.78;;
27505;SDS011;14939;43.596;1.320;2023-03-05T06:35:38;99.53;;;45.33;;
27505;SDS011;14939;43.596;1.320;2023-03-05T06:38:05;95.88;;;46.40;;
27505;SDS011;14939;43.596;1.320;2023-03-05T06:40:31;102.35;;;47.70;;
27505;SDS011;14939;43.596;1.320;2023-03-05T06:42:57;98.97;;;46.63;;
27505;SDS011;14939;43.596;1.320;2023-03-05T06:45:22;99.72;;;46.47;;
27505;SDS011;14939;43.596;1.320;2023-03-05T06:47:48;98.30;;;45.63;;
27505;SDS011;14939;43.596;1.320;2023-03-05T06:50:14;108.13;;;47.92;;
27505;SDS011;14939;43.596;1.320;2023-03-05T06:52:40;104.13;;;47.30;;
27505;SDS011;14939;43.596;1.320;2023-03-05T06:55:06;101.78;;;47.60;;
27505;SDS011;14939;43.596;1.320;2023-03-05T06:57:32;104.22;;;48.92;;
27505;SDS011;14939;43.596;1.320;2023-03-05T06:59:58;108.60;;;48.00;;
27505;SDS011;14939;43.596;1.320;2023-03-05T07:02:24;103.82;;;47.97;;
27505;SDS011;14939;43.596;1.320;2023-03-05T07:04:50;102.88;;;47.40;;
27505;SDS011;14939;43.596;1.320;2023-03-05T07:07:15;101.70;;;47.58;;
27505;SDS011;14939;43.596;1.320;2023-03-05T07:09:41;100.13;;;47.75;;
27505;SDS011;14939;43.596;1.320;2023-03-05T07:12:10;103.80;;;48.63;;
27505;SDS011;14939;43.596;1.320;2023-03-05T07:14:36;98.45;;;49.60;;
27505;SDS011;14939;43.596;1.320;2023-03-05T07:17:04;103.10;;;47.65;;
27505;SDS011;14939;43.596;1.320;2023-03-05T07:19:30;100.80;;;47.83;;
27505;SDS011;14939;43.596;1.320;2023-03-05T07:21:56;102.13;;;49.38;;
27505;SDS011;14939;43.596;1.320;2023-03-05T07:24:21;106.78;;;51.15;;
27505;SDS011;14939;43.596;1.320;2023-03-05T07:26:52;107.43;;;49.25;;
27505;SDS011;14939;43.596;1.320;2023-03-05T07:29:18;100.78;;;48.15;;
27505;SDS011;14939;43.596;1.320;2023-03-05T07:31:44;99.68;;;46.80;;
27505;SDS011;14939;43.596;1.320;2023-03-05T07:34:10;94.80;;;46.88;;
27505;SDS011;14939;43.596;1.320;2023-03-05T07:36:35;101.95;;;47.63;;
27505;SDS011;14939;43.596;1.320;2023-03-05T07:39:02;90.35;;;44.97;;
27505;SDS011;14939;43.596;1.320;2023-03-05T07:41:29;93.82;;;45.47;;
27505;SDS011;14939;43.596;1.320;2023-03-05T07:43:55;91.10;;;44.22;;
27505;SDS011;14939;43.596;1.320;2023-03-05T07:46:25;88.03;;;44.38;;
27505;SDS011;14939;43.596;1.320;2023-03-05T07:48:52;91.07;;;45.22;;
27505;SDS011;14939;43.596;1.320;2023-03-05T07:51:19;92.50;;;44.60;;
27505;SDS011;14939;43.596;1.320;2023-03-05T07:53:46;89.25;;;45.20;;
27505;SDS011;14939;43.596;1.320;2023-03-05T07:56:13;88.47;;;44.83;;
27505;SDS011;14939;43.596;1.320;2023-03-05T07:58:48;86.50;;;44.10;;
27505;SDS011;14939;43.596;1.320;2023-03-05T08:01:14;88.88;;;44.35;;
27505;SDS011;14939;43.596;1.320;2023-03-05T08:03:40;86.78;;;43.10;;
27505;SDS011;14939;43.596;1.320;2023-03-05T08:06:07;91.72;;;44.22;;
27505;SDS011;14939;43.596;1.320;2023-03-05T08:08:33;82.07;;;43.25;;
27505;SDS011;14939;43.596;1.320;2023-03-05T08:11:07;86.95;;;45.00;;
27505;SDS011;14939;43.596;1.320;2023-03-05T08:13:36;89.07;;;45.70;;
27505;SDS011;14939;43.596;1.320;2023-03-05T08:16:06;87.97;;;43.75;;
27505;SDS011;14939;43.596;1.320;2023-03-05T08:18:39;86.32;;;43.47;;
27505;SDS011;14939;43.596;1.320;2023-03-05T08:21:05;88.43;;;44.78;;
27505;SDS011;14939;43.596;1.320;2023-03-05T08:23:31;88.40;;;43.97;;
27505;SDS011;14939;43.596;1.320;2023-03-05T08:25:58;86.60;;;44.50;;
27505;SDS011;14939;43.596;1.320;2023-03-05T08:28:24;80.63;;;42.53;;
27505;SDS011;14939;43.596;1.320;2023-03-05T08:30:50;90.25;;;43.90;;
27505;SDS011;14939;43.596;1.320;2023-03-05T08:33:16;82.22;;;42.08;;
27505;SDS011;14939;43.596;1.320;2023-03-05T08:35:42;78.38;;;43.38;;
27505;SDS011;14939;43.596;1.320;2023-03-05T08:38:08;85.55;;;42.58;;
27505;SDS011;14939;43.596;1.320;2023-03-05T08:40:34;83.72;;;42.45;;
27505;SDS011;14939;43.596;1.320;2023-03-05T08:42:59;81.15;;;42.15;;
27505;SDS011;14939;43.596;1.320;2023-03-05T08:45:25;82.38;;;41.33;;
27505;SDS011;14939;43.596;1.320;2023-03-05T08:47:52;81.47;;;42.40;;
27505;SDS011;14939;43.596;1.320;2023-03-05T08:50:21;78.78;;;41.53;;
27505;SDS011;14939;43.596;1.320;2023-03-05T08:52:47;77.40;;;41.78;;
27505;SDS011;14939;43.596;1.320;2023-03-05T08:55:13;79.10;;;42.55;;
27505;SDS011;14939;43.596;1.320;2023-03-05T08:57:40;74.45;;;40.88;;
27505;SDS011;14939;43.596;1.320;2023-03-05T09:00:05;82.75;;;43.40;;
27505;SDS011;14939;43.596;1.320;2023-03-05T09:02:34;84.55;;;43.83;;
27505;SDS011;14939;43.596;1.320;2023-03-05T09:05:00;78.63;;;41.88;;
27505;SDS011;14939;43.596;1.320;2023-03-05T09:07:26;80.18;;;42.15;;
27505;SDS011;14939;43.596;1.320;2023-03-05T09:09:52;79.22;;;41.42;;
27505;SDS011;14939;43.596;1.320;2023-03-05T09:12:17;79.03;;;42.25;;
27505;SDS011;14939;43.596;1.320;2023-03-05T09:14:43;80.07;;;42.38;;
27505;SDS011;14939;43.596;1.320;2023-03-05T09:17:09;82.85;;;45.05;;
27505;SDS011;14939;43.596;1.320;2023-03-05T09:19:34;84.00;;;43.20;;
27505;SDS011;14939;43.596;1.320;2023-03-05T09:22:00;80.30;;;42.45;;
27505;SDS011;14939;43.596;1.320;2023-03-05T09:24:26;79.93;;;43.40;;
27505;SDS011;14939;43.596;1.320;2023-03-05T09:26:52;85.32;;;43.85;;
27505;SDS011;14939;43.596;1.320;2023-03-05T09:29:17;84.07;;;41.90;;
27505;SDS011;14939;43.596;1.320;2023-03-05T09:31:43;79.03;;;42.95;;
27505;SDS011;14939;43.596;1.320;2023-03-05T09:34:09;77.43;;;41.10;;
27505;SDS011;14939;43.596;1.320;2023-03-05T09:36:36;86.95;;;43.00;;
27505;SDS011;14939;43.596;1.320;2023-03-05T09:39:02;75.82;;;42.15;;
27505;SDS011;14939;43.596;1.320;2023-03-05T09:44:42;76.40;;;40.55;;
27505;SDS011;14939;43.596;1.320;2023-03-05T09:55:46;68.88;;;35.03;;
27505;SDS011;14939;43.596;1.320;2023-03-05T10:00:56;63.80;;;33.40;;
27505;SDS011;14939;43.596;1.320;2023-03-05T10:14:05;66.32;;;33.85;;
27505;SDS011;14939;43.596;1.320;2023-03-05T10:22:20;65.15;;;35.75;;
27505;SDS011;14939;43.596;1.320;2023-03-05T10:30:25;57.38;;;31.90;;
27505;SDS011;14939;43.596;1.320;2023-03-05T10:46:45;58.72;;;33.08;;
27505;SDS011;14939;43.596;1.320;2023-03-05T10:49:31;55.38;;;30.77;;
27505;SDS011;14939;43.596;1.320;2023-03-05T10:52:05;54.42;;;29.83;;
27505;SDS011;14939;43.596;1.320;2023-03-05T10:54:39;56.80;;;31.30;;
27505;SDS011;14939;43.596;1.320;2023-03-05T10:59:50;42.90;;;23.42;;
27505;SDS011;14939;43.596;1.320;2023-03-05T11:02:31;56.97;;;31.02;;
27505;SDS011;14939;43.596;1.320;2023-03-05T11:04:58;53.20;;;29.88;;
27505;SDS011;14939;43.596;1.320;2023-03-05T11:10:31;51.30;;;30.13;;
27505;SDS011;14939;43.596;1.320;2023-03-05T11:12:42;54.28;;;30.45;;
27505;SDS011;14939;43.596;1.320;2023-03-05T11:25:58;61.70;;;32.55;;
27505;SDS011;14939;43.596;1.320;2023-03-05T11:28:27;55.60;;;32.40;;
27505;SDS011;14939;43.596;1.320;2023-03-05T11:36:22;53.70;;;31.50;;
27505;SDS011;14939;43.596;1.320;2023-03-05T11:38:55;52.08;;;30.48;;
27505;SDS011;14939;43.596;1.320;2023-03-05T11:41:25;52.45;;;30.85;;
27505;SDS011;14939;43.596;1.320;2023-03-05T11:43:53;59.22;;;31.60;;
27505;SDS011;14939;43.596;1.320;2023-03-05T11:46:21;52.88;;;31.27;;
27505;SDS011;14939;43.596;1.320;2023-03-05T11:48:47;52.88;;;30.30;;
27505;SDS011;14939;43.596;1.320;2023-03-05T11:51:18;51.47;;;31.50;;
27505;SDS011;14939;43.596;1.320;2023-03-05T11:54:06;51.35;;;31.88;;
27505;SDS011;14939;43.596;1.320;2023-03-05T11:56:40;51.30;;;31.52;;
27505;SDS011;14939;43.596;1.320;2023-03-05T11:59:41;55.15;;;30.83;;
27505;SDS011;14939;43.596;1.320;2023-03-05T12:02:00;45.78;;;28.48;;
27505;SDS011;14939;43.596;1.320;2023-03-05T12:04:28;47.25;;;27.13;;
27505;SDS011;14939;43.596;1.320;2023-03-05T12:06:56;47.22;;;27.08;;
27505;SDS011;14939;43.596;1.320;2023-03-05T12:23:21;47.97;;;28.60;;
27505;SDS011;14939;43.596;1.320;2023-03-05T12:25:51;46.50;;;28.33;;
27505;SDS011;14939;43.596;1.320;2023-03-05T12:30:57;44.90;;;27.20;;
27505;SDS011;14939;43.596;1.320;2023-03-05T12:33:31;46.80;;;27.38;;
27505;SDS011;14939;43.596;1.320;2023-03-05T12:36:31;43.58;;;27.67;;
27505;SDS011;14939;43.596;1.320;2023-03-05T12:38:58;48.47;;;26.25;;
27505;SDS011;14939;43.596;1.320;2023-03-05T12:46:30;48.75;;;27.38;;
27505;SDS011;14939;43.596;1.320;2023-03-05T12:48:59;44.40;;;26.25;;
27505;SDS011;14939;43.596;1.320;2023-03-05T12:51:52;42.20;;;25.92;;
27505;SDS011;14939;43.596;1.320;2023-03-05T12:56:55;44.70;;;25.95;;
27505;SDS011;14939;43.596;1.320;2023-03-05T12:59:23;41.50;;;24.15;;
27505;SDS011;14939;43.596;1.320;2023-03-05T13:01:56;44.45;;;25.70;;
27505;SDS011;14939;43.596;1.320;2023-03-05T13:04:31;41.60;;;25.33;;
27505;SDS011;14939;43.596;1.320;2023-03-05T13:07:04;47.53;;;26.92;;
27505;SDS011;14939;43.596;1.320;2023-03-05T13:09:38;39.85;;;25.15;;
27505;SDS011;14939;43.596;1.320;2023-03-05T13:12:08;41.03;;;24.10;;
27505;SDS011;14939;43.596;1.320;2023-03-05T13:19:58;43.15;;;25.92;;
27505;SDS011;14939;43.596;1.320;2023-03-05T13:22:25;42.85;;;26.17;;
27505;SDS011;14939;43.596;1.320;2023-03-05T13:27:50;43.00;;;24.52;;
27505;SDS011;14939;43.596;1.320;2023-03-05T13:30:22;38.88;;;23.55;;
27505;SDS011;14939;43.596;1.320;2023-03-05T13:32:51;39.30;;;23.95;;
27505;SDS011;14939;43.596;1.320;2023-03-05T13:35:22;41.40;;;26.93;;
27505;SDS011;14939;43.596;1.320;2023-03-05T13:37:48;44.67;;;26.67;;
27505;SDS011;14939;43.596;1.320;2023-03-05T13:40:22;43.60;;;25.13;;
27505;SDS011;14939;43.596;1.320;2023-03-05T13:42:50;44.55;;;25.67;;
27505;SDS011;14939;43.596;1.320;2023-03-05T13:45:24;40.92;;;24.83;;
27505;SDS011;14939;43.596;1.320;2023-03-05T13:50:34;44.40;;;25.30;;
27505;SDS011;14939;43.596;1.320;2023-03-05T13:53:16;44.93;;;26.63;;
27505;SDS011;14939;43.596;1.320;2023-03-05T13:55:53;42.85;;;24.77;;
27505;SDS011;14939;43.596;1.320;2023-03-05T14:01:26;41.15;;;25.58;;
27505;SDS011;14939;43.596;1.320;2023-03-05T14:06:47;44.97;;;25.27;;
27505;SDS011;14939;43.596;1.320;2023-03-05T14:09:29;44.38;;;24.33;;
27505;SDS011;14939;43.596;1.320;2023-03-05T14:14:48;41.05;;;24.08;;
27505;SDS011;14939;43.596;1.320;2023-03-05T14:22:47;39.95;;;23.77;;
27505;SDS011;14939;43.596;1.320;2023-03-05T14:25:34;39.90;;;24.73;;
27505;SDS011;14939;43.596;1.320;2023-03-05T14:28:47;42.38;;;24.52;;
27505;SDS011;14939;43.596;1.320;2023-03-05T14:30:52;38.85;;;24.00;;
27505;SDS011;14939;43.596;1.320;2023-03-05T14:33:23;40.10;;;24.50;;
27505;SDS011;14939;43.596;1.320;2023-03-05T14:35:54;40.40;;;24.42;;
27505;SDS011;14939;43.596;1.320;2023-03-05T14:38:29;40.33;;;24.27;;
27505;SDS011;14939;43.596;1.320;2023-03-05T14:40:56;37.28;;;23.95;;
27505;SDS011;14939;43.596;1.320;2023-03-05T14:43:21;39.85;;;23.73;;
27505;SDS011;14939;43.596;1.320;2023-03-05T14:45:47;43.05;;;25.10;;
27505;SDS011;14939;43.596;1.320;2023-03-05T14:48:14;39.60;;;24.58;;
27505;SDS011;14939;43.596;1.320;2023-03-05T14:53:21;36.95;;;22.38;;
27505;SDS011;14939;43.596;1.320;2023-03-05T14:55:50;40.20;;;22.83;;
27505;SDS011;14939;43.596;1.320;2023-03-05T14:58:21;34.30;;;21.52;;
27505;SDS011;14939;43.596;1.320;2023-03-05T15:00:50;38.38;;;23.35;;
27505;SDS011;14939;43.596;1.320;2023-03-05T15:03:19;37.55;;;23.17;;
27505;SDS011;14939;43.596;1.320;2023-03-05T15:05:46;40.35;;;23.80;;
27505;SDS011;14939;43.596;1.320;2023-03-05T15:08:16;36.80;;;23.63;;
27505;SDS011;14939;43.596;1.320;2023-03-05T15:10:47;37.10;;;22.20;;
27505;SDS011;14939;43.596;1.320;2023-03-05T15:13:13;37.50;;;22.70;;
27505;SDS011;14939;43.596;1.320;2023-03-05T15:15:40;36.45;;;23.30;;
27505;SDS011;14939;43.596;1.320;2023-03-05T15:18:15;36.47;;;21.65;;
27505;SDS011;14939;43.596;1.320;2023-03-05T15:20:43;37.38;;;21.58;;
27505;SDS011;14939;43.596;1.320;2023-03-05T15:23:09;38.78;;;22.17;;
27505;SDS011;14939;43.596;1.320;2023-03-05T15:25:36;36.97;;;22.73;;
27505;SDS011;14939;43.596;1.320;2023-03-05T15:28:03;33.13;;;21.77;;
27505;SDS011;14939;43.596;1.320;2023-03-05T15:30:30;39.47;;;23.50;;
27505;SDS011;14939;43.596;1.320;2023-03-05T15:32:59;34.33;;;21.65;;
27505;SDS011;14939;43.596;1.320;2023-03-05T15:35:27;39.25;;;21.13;;
27505;SDS011;14939;43.596;1.320;2023-03-05T15:37:53;35.28;;;21.20;;
27505;SDS011;14939;43.596;1.320;2023-03-05T15:40:19;35.35;;;21.52;;
27505;SDS011;14939;43.596;1.320;2023-03-05T15:42:46;35.60;;;22.08;;
27505;SDS011;14939;43.596;1.320;2023-03-05T15:45:12;35.40;;;22.27;;
27505;SDS011;14939;43.596;1.320;2023-03-05T15:47:38;41.97;;;24.90;;
27505;SDS011;14939;43.596;1.320;2023-03-05T15:50:04;38.22;;;23.35;;
27505;SDS011;14939;43.596;1.320;2023-03-05T15:52:31;34.45;;;22.20;;
27505;SDS011;14939;43.596;1.320;2023-03-05T15:54:58;32.08;;;20.65;;
27505;SDS011;14939;43.596;1.320;2023-03-05T15:57:24;33.80;;;20.67;;
27505;SDS011;14939;43.596;1.320;2023-03-05T15:59:50;33.17;;;19.30;;
27505;SDS011;14939;43.596;1.320;2023-03-05T16:02:17;38.25;;;20.92;;
27505;SDS011;14939;43.596;1.320;2023-03-05T16:04:43;31.88;;;20.42;;
27505;SDS011;14939;43.596;1.320;2023-03-05T16:07:09;32.85;;;20.88;;
27505;SDS011;14939;43.596;1.320;2023-03-05T16:09:38;34.78;;;20.52;;
27505;SDS011;14939;43.596;1.320;2023-03-05T16:12:08;36.60;;;21.90;;
27505;SDS011;14939;43.596;1.320;2023-03-05T16:14:36;34.15;;;22.25;;
27505;SDS011;14939;43.596;1.320;2023-03-05T16:17:04;34.88;;;21.58;;
27505;SDS011;14939;43.596;1.320;2023-03-05T16:19:30;35.15;;;20.85;;
27505;SDS011;14939;43.596;1.320;2023-03-05T16:22:00;36.20;;;21.35;;
27505;SDS011;14939;43.596;1.320;2023-03-05T16:24:26;35.30;;;21.70;;
27505;SDS011;14939;43.596;1.320;2023-03-05T16:26:51;36.25;;;21.02;;
27505;SDS011;14939;43.596;1.320;2023-03-05T16:29:17;31.45;;;21.45;;
27505;SDS011;14939;43.596;1.320;2023-03-05T16:31:43;34.80;;;21.90;;